Time;durP1;ratioP1;P1;durP2;ratioP2;P2;SDS_P1;SDS_P2;PMS_P1;PMS_P2;Temp;Humidity;BMP_temperature;BMP_pressure;BME280_temperature;BME280_humidity;BME280_pressure;Samples;Min_cycle;Max_cycle;Signal;HPM_P1;HPM_P2
2023/04/13 00:00:37;;;;;;;5.43;1.75;;;7.50;1.00;;;;;;5063951;28;20063;-58
2023/04/13 00:03:03;;;;;;;4.80;1.80;;;7.70;1.00;;;;;;5061522;28;20064;-56
2023/04/13 00:05:30;;;;;;;4.80;1.65;;;;;;;;;;5061537;28;20115;-58
2023/04/13 00:07:56;;;;;;;7.07;1.70;;;;;;;;;;5061195;28;20523;-53
2023/04/13 00:10:22;;;;;;;4.55;1.60;;;7.80;1.00;;;;;;5059348;28;20360;-54
2023/04/13 00:12:49;;;;;;;4.95;1.70;;;;;;;;;;5061379;28;20071;-58
2023/04/13 00:15:16;;;;;;;4.75;1.60;;;;;;;;;;5065021;28;20036;-56
2023/04/13 00:17:42;;;;;;;5.75;1.65;;;;;;;;;;5060085;28;20074;-59
2023/04/13 00:20:12;;;;;;;8.90;1.60;;;;;;;;;;5061408;28;20051;-57
2023/04/13 00:22:39;;;;;;;4.70;2.10;;;;;;;;;;5062512;28;20036;-55
2023/04/13 00:25:05;;;;;;;6.60;1.80;;;;;;;;;;5065377;28;20029;-56
2023/04/13 00:27:32;;;;;;;4.43;1.40;;;;;;;;;;5067459;28;20036;-57
2023/04/13 00:29:58;;;;;;;4.25;1.65;;;;;;;;;;5067813;28;20402;-56
2023/04/13 00:32:24;;;;;;;4.03;1.52;;;;;;;;;;5067250;28;21372;-57
2023/04/13 00:34:50;;;;;;;5.63;1.70;;;;;;;;;;5059528;28;20102;-56
2023/04/13 00:37:17;;;;;;;4.97;1.70;;;6.70;99.90;;;;;;5063352;28;20045;-58
2023/04/13 00:39:46;;;;;;;3.97;1.40;;;6.70;99.90;;;;;;5066979;28;20502;-57
2023/04/13 00:42:12;;;;;;;4.80;1.42;;;;;;;;;;5065207;28;20060;-57
2023/04/13 00:44:39;;;;;;;4.45;1.50;;;;;;;;;;5063438;28;20650;-57
2023/04/13 00:47:07;;;;;;;3.88;1.27;;;7.00;99.90;;;;;;5065253;28;20081;-56
2023/04/13 00:49:34;;;;;;;5.45;1.80;;;;;;;;;;5128210;22;20144;-66
2023/04/13 00:52:01;;;;;;;6.50;1.63;;;;;;;;;;5104145;22;20036;-61
2023/04/13 00:54:30;;;;;;;5.28;1.45;;;;;;;;;;5037928;28;20037;-60
2023/04/13 00:56:57;;;;;;;4.32;1.65;;;6.80;99.90;;;;;;5040592;28;20126;-61
2023/04/13 00:59:26;;;;;;;4.10;1.50;;;7.00;99.90;;;;;;5041884;28;20648;-61
2023/04/13 01:01:55;;;;;;;5.07;1.38;;;6.90;99.90;;;;;;5036811;28;20524;-60
2023/04/13 01:04:26;;;;;;;4.18;1.35;;;6.80;1.00;;;;;;5036230;28;20522;-61
2023/04/13 01:06:52;;;;;;;4.63;1.42;;;;;;;;;;5036664;28;20101;-61
2023/04/13 01:09:22;;;;;;;5.93;2.00;;;;;;;;;;5037902;28;20045;-61
2023/04/13 01:11:53;;;;;;;5.60;1.58;;;7.10;1.00;;;;;;5037661;28;20040;-61
2023/04/13 01:14:43;;;;;;;4.03;1.38;;;;;;;;;;5036020;28;20163;-61
2023/04/13 01:17:16;;;;;;;3.42;1.38;;;;;;;;;;5024615;28;20045;-62
2023/04/13 01:19:57;;;;;;;5.65;1.58;;;;;;;;;;5036140;28;20048;-61
2023/04/13 01:22:26;;;;;;;5.10;1.50;;;;;;;;;;5032226;28;20045;-60
2023/04/13 01:25:07;;;;;;;7.00;1.70;;;;;;;;;;5035250;28;20041;-62
2023/04/13 01:27:41;;;;;;;3.90;1.50;;;;;;;;;;5036222;28;20029;-61
2023/04/13 01:30:09;;;;;;;5.38;1.42;;;7.10;31.20;;;;;;5029553;28;20179;-61
2023/04/13 01:32:36;;;;;;;4.18;1.65;;;;;;;;;;5036762;28;20483;-61
2023/04/13 01:35:02;;;;;;;5.30;1.83;;;;;;;;;;5038464;28;20037;-61
2023/04/13 01:37:28;;;;;;;6.55;1.75;;;;;;;;;;5031926;28;20040;-61
2023/04/13 01:39:54;;;;;;;5.57;2.25;;;;;;;;;;5040599;28;20043;-60
2023/04/13 01:42:20;;;;;;;4.95;1.52;;;;;;;;;;5038936;28;20091;-61
2023/04/13 01:44:46;;;;;;;5.38;1.70;;;;;;;;;;5036206;28;20052;-61
2023/04/13 01:47:17;;;;;;;5.45;1.60;;;6.90;99.90;;;;;;5040497;28;20029;-62
2023/04/13 01:49:46;;;;;;;6.47;1.70;;;;;;;;;;5036800;28;20037;-61
2023/04/13 01:52:13;;;;;;;5.00;1.88;;;;;;;;;;5036529;28;20044;-62
2023/04/13 01:54:40;;;;;;;4.60;1.65;;;;;;;;;;5035934;28;20077;-61
2023/04/13 01:57:06;;;;;;;5.65;1.92;;;;;;;;;;5033242;28;20040;-62
2023/04/13 01:59:31;;;;;;;7.15;2.15;;;6.90;99.90;;;;;;5035689;28;20037;-61
2023/04/13 02:01:58;;;;;;;5.90;2.03;;;;;;;;;;5036715;28;20048;-61
2023/04/13 02:04:24;;;;;;;5.53;1.70;;;;;;;;;;5039415;28;20124;-60
2023/04/13 02:06:50;;;;;;;6.85;2.20;;;7.00;99.90;;;;;;5034939;28;20058;-61
2023/04/13 02:09:16;;;;;;;4.43;2.00;;;;;;;;;;5033058;28;20099;-61
2023/04/13 02:11:46;;;;;;;5.25;1.90;;;;;;;;;;5040209;28;20056;-61
2023/04/13 02:14:12;;;;;;;6.68;1.92;;;6.80;99.90;;;;;;5033339;28;20067;-61
2023/04/13 02:16:38;;;;;;;4.18;2.00;;;;;;;;;;5040070;28;20033;-61
2023/04/13 02:19:04;;;;;;;4.80;2.00;;;;;;;;;;5030484;28;20038;-60
2023/04/13 02:21:30;;;;;;;5.03;2.10;;;;;;;;;;5033743;28;20524;-61
2023/04/13 02:23:56;;;;;;;6.05;2.15;;;;;;;;;;5036875;28;20038;-60
2023/04/13 02:26:23;;;;;;;4.53;1.90;;;;;;;;;;5040386;28;20037;-60
2023/04/13 02:28:50;;;;;;;5.40;1.88;;;;;;;;;;5031460;28;20098;-60
2023/04/13 02:31:18;;;;;;;6.28;2.10;;;;;;;;;;5032617;28;20048;-62
2023/04/13 02:33:45;;;;;;;5.95;2.10;;;;;;;;;;5039044;28;20041;-61
2023/04/13 02:36:11;;;;;;;5.90;2.38;;;;;;;;;;5036912;28;20045;-62
2023/04/13 02:38:37;;;;;;;6.47;2.38;;;;;;;;;;5034632;28;20049;-64
2023/04/13 02:41:04;;;;;;;5.80;2.28;;;;;;;;;;5039506;28;20039;-66
2023/04/13 02:43:30;;;;;;;6.05;1.77;;;;;;;;;;5032216;28;20034;-68
2023/04/13 02:45:56;;;;;;;6.00;1.65;;;6.40;9.10;;;;;;5034911;28;20032;-67
2023/04/13 02:48:22;;;;;;;3.20;1.00;;;;;;;;;;5033894;28;20037;-68
2023/04/13 02:50:48;;;;;;;2.97;1.30;;;5.70;53.10;;;;;;5030128;28;20167;-68
2023/04/13 02:53:15;;;;;;;7.40;1.50;;;5.40;99.90;;;;;;5031503;28;20117;-68
2023/04/13 02:55:42;;;;;;;4.57;1.00;;;;;;;;;;5036179;28;20037;-68
2023/04/13 02:58:08;;;;;;;3.17;1.00;;;;;;;;;;5035987;28;20040;-69
2023/04/13 03:00:34;;;;;;;3.45;0.93;;;;;;;;;;5042654;28;20041;-69
2023/04/13 03:03:02;;;;;;;3.13;1.00;;;;;;;;;;5033463;28;20037;-69
2023/04/13 03:05:30;;;;;;;2.70;1.00;;;;;;;;;;5032938;28;20037;-69
2023/04/13 03:07:56;;;;;;;5.40;1.10;;;;;;;;;;5037190;28;20124;-70
2023/04/13 03:10:22;;;;;;;2.80;1.10;;;;;;;;;;5032449;28;20512;-70
2023/04/13 03:12:49;;;;;;;5.60;2.40;;;;;;;;;;5033610;28;20040;-70
2023/04/13 03:15:17;;;;;;;3.75;1.40;;;5.70;99.90;;;;;;5036250;28;20533;-69
2023/04/13 03:17:43;;;;;;;4.70;1.60;;;;;;;;;;5029481;28;20037;-69
2023/04/13 03:20:15;;;;;;;5.43;1.95;;;;;;;;;;5034963;28;20037;-68
2023/04/13 03:22:42;;;;;;;6.88;2.50;;;;;;;;;;5030182;28;20053;-68
2023/04/13 03:25:08;;;;;;;6.60;2.60;;;;;;;;;;5034915;28;20516;-68
2023/04/13 03:27:35;;;;;;;9.93;3.05;;;5.70;99.90;;;;;;5034943;28;20490;-68
2023/04/13 03:30:01;;;;;;;7.00;3.08;;;;;;;;;;5022787;28;20039;-67
2023/04/13 03:32:27;;;;;;;7.50;3.13;;;;;;;;;;5031410;28;20141;-67
2023/04/13 03:34:54;;;;;;;6.35;2.92;;;;;;;;;;5027128;28;20081;-67
2023/04/13 03:37:20;;;;;;;7.13;3.42;;;;;;;;;;5025929;28;20128;-67
2023/04/13 03:39:46;;;;;;;7.63;3.95;;;;;;;;;;5037254;28;20094;-67
2023/04/13 03:42:12;;;;;;;8.57;3.58;;;;;;;;;;5030502;28;20048;-67
2023/04/13 03:44:38;;;;;;;6.57;2.55;;;;;;;;;;5030123;28;20045;-66
2023/04/13 03:47:05;;;;;;;6.47;2.45;;;;;;;;;;5033626;28;20061;-67
2023/04/13 03:49:31;;;;;;;6.38;2.25;;;;;;;;;;5031533;28;20090;-66
2023/04/13 03:51:57;;;;;;;6.57;2.05;;;;;;;;;;5031545;28;20040;-66
2023/04/13 03:54:24;;;;;;;5.90;2.58;;;;;;;;;;5033773;28;20044;-66
2023/04/13 03:56:50;;;;;;;7.57;1.92;;;5.80;99.90;;;;;;5034597;28;20045;-66
2023/04/13 03:59:16;;;;;;;5.32;1.90;;;;;;;;;;5034419;28;20071;-66
2023/04/13 04:01:42;;;;;;;4.50;1.70;;;;;;;;;;5034691;28;20037;-66
2023/04/13 04:04:08;;;;;;;7.35;2.20;;;;;;;;;;5033146;28;20038;-66
2023/04/13 04:06:34;;;;;;;5.85;2.17;;;;;;;;;;5031672;28;20120;-66
2023/04/13 04:09:01;;;;;;;7.05;3.05;;;;;;;;;;5034603;28;20446;-66
2023/04/13 04:11:27;;;;;;;6.55;2.60;;;;;;;;;;5040499;28;20052;-66
2023/04/13 04:13:53;;;;;;;10.15;3.35;;;;;;;;;;5034441;28;20155;-65
2023/04/13 04:16:19;;;;;;;9.00;2.90;;;;;;;;;;5029285;28;20037;-66
2023/04/13 04:18:45;;;;;;;8.40;3.42;;;;;;;;;;5037964;28;20433;-65
2023/04/13 04:21:12;;;;;;;7.68;2.75;;;;;;;;;;5033305;28;20371;-66
2023/04/13 04:23:38;;;;;;;7.78;3.17;;;;;;;;;;5030730;28;20128;-66
2023/04/13 04:26:05;;;;;;;11.90;3.13;;;;;;;;;;5034829;28;20076;-66
2023/04/13 04:28:37;;;;;;;8.32;2.90;;;;;;;;;;5025136;28;20110;-66
2023/04/13 04:31:09;;;;;;;12.38;3.30;;;;;;;;;;5026437;28;20117;-66
2023/04/13 04:33:37;;;;;;;8.27;3.10;;;;;;;;;;5032760;28;20045;-66
2023/04/13 04:36:04;;;;;;;9.43;3.10;;;;;;;;;;5034827;28;20045;-66
2023/04/13 04:38:31;;;;;;;9.88;2.85;;;;;;;;;;5036485;28;20570;-66
2023/04/13 04:40:58;;;;;;;8.85;2.90;;;;;;;;;;5032808;28;20498;-65
2023/04/13 04:43:25;;;;;;;8.25;3.00;;;;;;;;;;5027438;28;20056;-66
2023/04/13 04:45:56;;;;;;;9.32;3.28;;;;;;;;;;5031840;28;20049;-66
2023/04/13 04:48:23;;;;;;;9.05;3.10;;;;;;;;;;5030299;28;20503;-65
2023/04/13 04:50:51;;;;;;;8.20;2.70;;;;;;;;;;5032080;28;20122;-66
2023/04/13 04:53:17;;;;;;;9.40;3.95;;;5.80;1.00;;;;;;5018678;28;20075;-65
2023/04/13 04:55:43;;;;;;;7.25;3.00;;;;;;;;;;5016547;28;20041;-66
2023/04/13 04:58:09;;;;;;;7.55;3.13;;;;;;;;;;5036626;28;20106;-66
2023/04/13 05:00:35;;;;;;;9.38;2.95;;;;;;;;;;5029630;28;20030;-66
2023/04/13 05:03:01;;;;;;;8.32;3.15;;;;;;;;;;5031790;28;20120;-66
2023/04/13 05:05:29;;;;;;;10.82;3.55;;;;;;;;;;5034113;28;20056;-66
2023/04/13 05:07:55;;;;;;;12.23;3.38;;;;;;;;;;5033047;28;20458;-66
2023/04/13 05:10:23;;;;;;;10.25;3.58;;;;;;;;;;5029317;28;20033;-65
2023/04/13 05:12:50;;;;;;;8.52;3.13;;;;;;;;;;5032476;28;20125;-66
2023/04/13 05:15:16;;;;;;;9.57;3.00;;;;;;;;;;5030375;28;20072;-65
2023/04/13 05:17:45;;;;;;;12.00;3.72;;;;;;;;;;5037503;28;20048;-65
2023/04/13 05:20:12;;;;;;;8.40;3.17;;;5.90;3.20;;;;;;5032782;28;20053;-66
2023/04/13 05:22:38;;;;;;;5.65;2.55;;;;;;;;;;5033626;28;20132;-65
2023/04/13 05:25:05;;;;;;;10.13;2.92;;;;;;;;;;5049503;28;20037;-65
2023/04/13 05:27:31;;;;;;;9.63;3.05;;;;;;;;;;5051295;28;20041;-66
2023/04/13 05:29:57;;;;;;;6.95;2.28;;;;;;;;;;5046688;28;20045;-65
2023/04/13 05:32:24;;;;;;;13.43;2.90;;;;;;;;;;5039819;28;20056;-66
2023/04/13 05:34:50;;;;;;;7.15;2.47;;;;;;;;;;5042955;28;20079;-66
2023/04/13 05:37:16;;;;;;;9.95;3.50;;;;;;;;;;5050068;28;20041;-66
2023/04/13 05:39:42;;;;;;;9.95;2.78;;;;;;;;;;5049214;28;20083;-66
2023/04/13 05:42:08;;;;;;;13.95;4.13;;;6.70;99.90;;;;;;5047156;28;20052;-66
2023/04/13 05:44:34;;;;;;;11.80;3.10;;;;;;;;;;5046529;28;20028;-66
2023/04/13 05:47:01;;;;;;;7.35;3.15;;;;;;;;;;5049162;28;20175;-66
2023/04/13 05:49:27;;;;;;;8.68;2.78;;;6.90;99.90;;;;;;5050901;28;20032;-66
2023/04/13 05:51:53;;;;;;;8.65;2.58;;;6.80;99.90;;;;;;5049973;28;20559;-66
2023/04/13 05:54:19;;;;;;;6.60;2.40;;;;;;;;;;5042096;28;20091;-65
2023/04/13 05:56:46;;;;;;;9.13;2.47;;;6.70;99.90;;;;;;5047375;28;20079;-65
2023/04/13 05:59:13;;;;;;;7.63;2.72;;;;;;;;;;5041314;28;20049;-65
2023/04/13 06:01:39;;;;;;;7.18;2.60;;;;;;;;;;5037924;28;20041;-66
2023/04/13 06:04:05;;;;;;;6.88;3.25;;;;;;;;;;5043410;28;20120;-66
2023/04/13 06:06:31;;;;;;;7.15;3.35;;;6.70;99.90;;;;;;5048265;28;20531;-66
2023/04/13 06:08:57;;;;;;;8.43;2.97;;;6.70;99.90;;;;;;5046300;28;20041;-66
2023/04/13 06:11:24;;;;;;;8.35;2.70;;;;;;;;;;5046362;28;20093;-66
2023/04/13 06:13:50;;;;;;;7.90;2.92;;;6.80;99.90;;;;;;5038328;28;20046;-66
2023/04/13 06:16:17;;;;;;;7.75;3.30;;;;;;;;;;5049852;28;20044;-66
2023/04/13 06:18:43;;;;;;;9.75;2.90;;;;;;;;;;5040186;28;20091;-66
2023/04/13 06:21:09;;;;;;;8.48;2.72;;;;;;;;;;5040341;28;20044;-67
2023/04/13 06:23:36;;;;;;;9.45;3.28;;;;;;;;;;5050128;28;20120;-67
2023/04/13 06:26:02;;;;;;;9.55;3.70;;;;;;;;;;5049678;28;20032;-68
2023/04/13 06:28:30;;;;;;;7.15;3.72;;;;;;;;;;5048749;28;20072;-67
2023/04/13 06:30:56;;;;;;;10.25;3.53;;;;;;;;;;5049827;28;20067;-66
2023/04/13 06:33:22;;;;;;;7.75;3.17;;;;;;;;;;5046499;28;20051;-67
2023/04/13 06:35:49;;;;;;;11.93;3.83;;;;;;;;;;5040462;28;20139;-66
2023/04/13 06:38:15;;;;;;;9.82;4.30;;;;;;;;;;5037791;28;20053;-67
2023/04/13 06:40:42;;;;;;;11.23;3.80;;;;;;;;;;5046210;28;20041;-66
2023/04/13 06:43:07;;;;;;;9.02;2.78;;;7.20;1.00;;;;;;5037277;28;20040;-65
2023/04/13 06:45:34;;;;;;;11.70;3.35;;;;;;;;;;5047817;28;20029;-65
2023/04/13 06:48:01;;;;;;;7.03;3.63;;;;;;;;;;5041118;28;20053;-67
2023/04/13 06:50:27;;;;;;;11.43;3.55;;;;;;;;;;5047065;28;20045;-68
2023/04/13 06:52:53;;;;;;;10.35;3.88;;;;;;;;;;5049108;28;20045;-66
2023/04/13 06:55:20;;;;;;;10.98;2.88;;;;;;;;;;5052221;28;20048;-66
2023/04/13 06:57:46;;;;;;;11.13;3.95;;;;;;;;;;5046517;28;20040;-66
2023/04/13 07:00:16;;;;;;;8.20;3.17;;;;;;;;;;5045190;28;20029;-67
2023/04/13 07:02:41;;;;;;;7.75;3.03;;;7.60;99.90;;;;;;5049281;28;20041;-67
2023/04/13 07:05:08;;;;;;;6.65;2.00;;;7.70;1.00;;;;;;5045106;28;20046;-66
2023/04/13 07:07:34;;;;;;;8.32;2.20;;;;;;;;;;5049647;28;20112;-67
2023/04/13 07:10:00;;;;;;;8.43;2.08;;;;;;;;;;5037306;28;20041;-67
2023/04/13 07:12:26;;;;;;;10.05;2.75;;;;;;;;;;5043627;28;20048;-67
2023/04/13 07:14:52;;;;;;;6.72;2.17;;;;;;;;;;5047381;28;20036;-66
2023/04/13 07:17:18;;;;;;;8.57;2.03;;;;;;;;;;5042525;28;20040;-68
2023/04/13 07:19:45;;;;;;;8.30;3.05;;;;;;;;;;5052345;28;20040;-67
2023/04/13 07:22:11;;;;;;;11.68;2.55;;;;;;;;;;5038814;28;20037;-67
2023/04/13 07:24:37;;;;;;;9.35;2.78;;;7.70;99.90;;;;;;5048433;28;20033;-67
2023/04/13 07:27:03;;;;;;;6.35;2.28;;;;;;;;;;5045309;28;20087;-67
2023/04/13 07:29:29;;;;;;;8.32;2.40;;;;;;;;;;5043154;28;20075;-70
2023/04/13 07:32:01;;;;;;;7.07;2.10;;;7.60;60.70;;;;;;5034653;28;20037;-69
2023/04/13 07:34:27;;;;;;;6.53;2.28;;;7.20;86.60;;;;;;5036636;28;20036;-67
2023/04/13 07:36:53;;;;;;;10.63;2.55;;;;;;;;;;5015207;28;20037;-66
2023/04/13 07:39:19;;;;;;;9.07;2.35;;;;;;;;;;5042007;28;20044;-66
2023/04/13 07:41:46;;;;;;;9.30;2.20;;;7.60;12.20;;;;;;5047731;28;20120;-65
2023/04/13 07:44:13;;;;;;;7.70;2.20;;;7.70;1.00;;;;;;5037813;28;20040;-66
2023/04/13 07:46:40;;;;;;;5.53;1.90;;;;;;;;;;5046601;28;20191;-66
2023/04/13 07:49:06;;;;;;;9.15;1.92;;;;;;;;;;5049967;28;20044;-66
2023/04/13 07:51:33;;;;;;;3.28;1.20;;;;;;;;;;5066561;22;20040;-61
2023/04/13 07:54:00;;;;;;;5.43;1.55;;;;;;;;;;5061239;28;20414;-61
2023/04/13 07:56:26;;;;;;;4.50;1.20;;;7.20;1.00;;;;;;5063889;28;20052;-61
2023/04/13 07:58:52;;;;;;;4.80;1.17;;;6.70;99.90;;;;;;5069658;28;20394;-60
2023/04/13 08:01:18;;;;;;;5.05;1.20;;;6.50;99.90;;;;;;5066634;28;20020;-60
2023/04/13 08:03:44;;;;;;;4.03;1.10;;;;;;;;;;5065102;28;20509;-57
2023/04/13 08:06:10;;;;;;;3.85;1.08;;;;;;;;;;5067853;28;20029;-60
2023/04/13 08:08:36;;;;;;;3.65;1.05;;;;;;;;;;5069086;28;20043;-60
2023/04/13 08:11:02;;;;;;;3.15;0.90;;;;;;;;;;5068323;28;20397;-59
2023/04/13 08:13:29;;;;;;;4.75;1.80;;;;;;;;;;5068466;28;20119;-61
2023/04/13 08:15:56;;;;;;;2.85;0.98;;;;;;;;;;5059553;28;20379;-61
2023/04/13 08:18:26;;;;;;;5.15;1.50;;;;;;;;;;5070456;28;20058;-61
2023/04/13 08:20:53;;;;;;;6.07;1.80;;;6.20;61.20;;;;;;5064211;28;20097;-61
2023/04/13 08:23:20;;;;;;;9.38;2.45;;;;;;;;;;5062063;28;20040;-62
2023/04/13 08:25:46;;;;;;;6.60;2.28;;;;;;;;;;5137802;22;20116;-63
2023/04/13 08:28:13;;;;;;;6.57;1.80;;;;;;;;;;5057979;28;20123;-63
2023/04/13 08:30:40;;;;;;;12.70;2.85;;;;;;;;;;5063760;28;20397;-63
2023/04/13 08:33:06;;;;;;;7.03;1.80;;;7.00;99.90;;;;;;5069874;28;20044;-61
2023/04/13 08:35:33;;;;;;;3.58;1.10;;;;;;;;;;5070157;28;20486;-63
2023/04/13 08:38:01;;;;;;;4.50;1.33;;;6.80;99.90;;;;;;5073340;28;20072;-61
2023/04/13 08:40:27;;;;;;;3.25;1.30;;;6.80;99.90;;;;;;5073721;28;20036;-62
2023/04/13 08:42:55;;;;;;;4.68;1.00;;;;;;;;;;5064181;28;20048;-63
2023/04/13 08:45:21;;;;;;;5.45;1.40;;;;;;;;;;5071102;28;20547;-62
2023/04/13 08:47:48;;;;;;;7.45;1.20;;;6.90;1.00;;;;;;5070436;28;20048;-62
2023/04/13 08:50:15;;;;;;;5.03;1.45;;;6.80;99.90;;;;;;5066083;28;20041;-63
2023/04/13 08:52:41;;;;;;;3.90;1.20;;;;;;;;;;5072200;28;20067;-63
2023/04/13 08:55:08;;;;;;;4.75;1.42;;;;;;;;;;5073624;28;20048;-62
2023/04/13 08:57:35;;;;;;;5.75;1.60;;;;;;;;;;5132706;22;21309;-58
2023/04/13 09:00:10;;;;;;;6.95;1.45;;;;;;;;;;5070062;28;20043;-58
2023/04/13 09:02:37;;;;;;;4.13;1.65;;;;;;;;;;5079549;28;20119;-58
2023/04/13 09:05:08;;;;;;;3.92;1.17;;;;;;;;;;5068082;28;20052;-57
2023/04/13 09:07:35;;;;;;;4.20;1.20;;;7.70;99.90;;;;;;5067271;28;20052;-58
2023/04/13 09:10:04;;;;;;;5.50;1.52;;;;;;;;;;5067841;28;20122;-58
2023/04/13 09:12:31;;;;;;;5.88;1.38;;;7.90;99.90;;;;;;5070711;28;20044;-58
2023/04/13 09:14:56;;;;;;;9.27;1.33;;;7.90;99.90;;;;;;5070644;28;20421;-58
2023/04/13 09:17:24;;;;;;;3.17;1.20;;;;;;;;;;5068541;28;20043;-58
2023/04/13 09:19:51;;;;;;;4.68;1.40;;;;;;;;;;5071818;28;20040;-59
2023/04/13 09:22:17;;;;;;;5.50;1.27;;;;;;;;;;5070463;28;20036;-58
2023/04/13 09:24:43;;;;;;;4.07;1.30;;;;;;;;;;5071286;28;20040;-59
2023/04/13 09:27:19;;;;;;;6.95;1.35;;;;;;;;;;5064717;28;20052;-58
2023/04/13 09:29:53;;;;;;;6.85;1.63;;;8.20;1.00;;;;;;5066945;28;20059;-58
2023/04/13 09:32:23;;;;;;;7.22;2.05;;;;;;;;;;5069330;28;20044;-59
2023/04/13 09:35:03;;;;;;;4.78;1.42;;;;;;;;;;5068515;28;20417;-58
2023/04/13 09:37:31;;;;;;;7.07;1.33;;;;;;;;;;5064066;28;20171;-57
2023/04/13 09:40:07;;;;;;;6.05;1.65;;;;;;;;;;5071008;28;20062;-58
2023/04/13 09:42:33;;;;;;;5.55;0.98;;;;;;;;;;5064477;28;20466;-56
2023/04/13 09:44:58;;;;;;;4.55;1.30;;;8.20;99.90;;;;;;5070116;28;20056;-58
2023/04/13 09:47:33;;;;;;;5.40;1.30;;;8.30;99.90;;;;;;5071117;28;20074;-59
2023/04/13 09:49:58;;;;;;;5.15;1.20;;;8.60;99.90;;;;;;5070770;28;20406;-58
2023/04/13 09:52:25;;;;;;;5.90;1.52;;;;;;;;;;5053248;28;20032;-58
2023/04/13 09:54:57;;;;;;;5.63;1.83;;;;;;;;;;5069206;28;20055;-58
2023/04/13 09:57:31;;;;;;;3.05;1.20;;;8.70;99.90;;;;;;5086404;28;20051;-57
2023/04/13 09:59:59;;;;;;;5.75;1.50;;;8.50;82.40;;;;;;5070774;28;20044;-58
2023/04/13 10:02:26;;;;;;;13.60;2.00;;;;;;;;;;5070595;28;20093;-57
2023/04/13 10:04:52;;;;;;;6.88;2.03;;;8.70;99.90;;;;;;5070600;28;20037;-56
2023/04/13 10:07:19;;;;;;;9.85;1.55;;;;;;;;;;5067631;28;20111;-55
2023/04/13 10:09:45;;;;;;;6.93;1.70;;;;;;;;;;5067491;28;20040;-56
2023/04/13 10:12:15;;;;;;;7.35;1.60;;;8.50;99.90;;;;;;5062997;28;20309;-57
2023/04/13 10:14:43;;;;;;;11.75;2.03;;;;;;;;;;5189715;22;20146;-56
2023/04/13 10:17:27;;;;;;;4.32;1.20;;;;;;;;;;5066819;28;20062;-58
2023/04/13 10:19:55;;;;;;;4.43;1.40;;;;;;;;;;5069608;28;20036;-54
2023/04/13 10:22:22;;;;;;;4.32;1.38;;;7.50;1.00;;;;;;5066786;28;20052;-55
2023/04/13 10:24:51;;;;;;;4.07;1.17;;;;;;;;;;5068650;28;20040;-57
2023/04/13 10:27:21;;;;;;;4.53;1.15;;;;;;;;;;5067125;28;20098;-58
2023/04/13 10:29:48;;;;;;;6.57;1.27;;;;;;;;;;5064992;28;20047;-57
2023/04/13 10:32:21;;;;;;;5.68;1.58;;;;;;;;;;5067276;28;20051;-54
2023/04/13 10:34:47;;;;;;;6.20;1.55;;;7.00;99.90;;;;;;5074802;28;20123;-54
2023/04/13 10:37:21;;;;;;;4.95;1.40;;;7.00;1.00;;;;;;5069672;28;20466;-55
2023/04/13 10:39:48;;;;;;;8.70;1.75;;;7.10;1.00;;;;;;5070023;28;20046;-54
2023/04/13 10:42:14;;;;;;;10.15;2.53;;;;;;;;;;5064352;28;20098;-56
2023/04/13 10:44:47;;;;;;;13.90;1.95;;;;;;;;;;5135976;22;20087;-63
2023/04/13 10:47:15;;;;;;;8.50;2.00;;;8.00;99.90;;;;;;5046151;28;20051;-63
2023/04/13 10:49:42;;;;;;;8.77;2.70;;;;;;;;;;5055797;28;20033;-61
2023/04/13 10:52:09;;;;;;;6.50;2.20;;;7.40;1.00;;;;;;5031246;28;20242;-63
2023/04/13 10:54:36;;;;;;;6.45;2.13;;;;;;;;;;5024261;28;20329;-61
2023/04/13 10:57:05;;;;;;;9.48;2.75;;;;;;;;;;5022500;28;20052;-61
2023/04/13 10:59:54;;;;;;;13.63;3.88;;;;;;;;;;5024183;28;20041;-62
2023/04/13 11:02:20;;;;;;;6.28;1.92;;;;;;;;;;5023155;28;20047;-62
2023/04/13 11:04:47;;;;;;;5.50;1.65;;;;;;;;;;5024690;28;20507;-60
2023/04/13 11:07:17;;;;;;;6.05;1.25;;;;;;;;;;5027476;28;20045;-61
2023/04/13 11:09:44;;;;;;;10.00;1.55;;;;;;;;;;5022327;28;20061;-61
2023/04/13 11:12:13;;;;;;;6.43;2.70;;;7.20;1.00;;;;;;5047654;28;20045;-62
2023/04/13 11:14:39;;;;;;;7.05;1.73;;;7.40;1.00;;;;;;5029302;28;20107;-62
2023/04/13 11:17:06;;;;;;;9.93;1.95;;;7.80;1.00;;;;;;5021777;28;20045;-62
2023/04/13 11:19:33;;;;;;;5.95;1.60;;;;;;;;;;5026322;28;20064;-61
2023/04/13 11:22:00;;;;;;;7.07;1.90;;;;;;;;;;5028778;28;20049;-61
2023/04/13 11:24:27;;;;;;;8.38;2.40;;;7.70;99.90;;;;;;5029374;28;20041;-61
2023/04/13 11:26:53;;;;;;;8.38;2.08;;;;;;;;;;5028010;28;20048;-61
2023/04/13 11:29:23;;;;;;;12.80;3.30;;;;;;;;;;5015129;28;20034;-61
2023/04/13 11:31:50;;;;;;;10.05;3.10;;;;;;;;;;5029142;28;20048;-62
2023/04/13 11:34:27;;;;;;;10.57;3.08;;;;;;;;;;5027504;28;21428;-62
2023/04/13 11:37:00;;;;;;;13.00;3.03;;;8.10;92.70;;;;;;5025268;28;20141;-61
2023/04/13 11:39:27;;;;;;;14.80;2.70;;;;;;;;;;5028054;28;20022;-62
2023/04/13 11:41:55;;;;;;;14.55;3.58;;;8.70;99.90;;;;;;5028948;28;20049;-62
2023/04/13 11:44:22;;;;;;;9.05;2.83;;;8.80;94.20;;;;;;5028268;28;20053;-61
2023/04/13 11:46:51;;;;;;;11.60;2.75;;;;;;;;;;5010933;28;20041;-62
2023/04/13 11:49:17;;;;;;;13.57;2.72;;;;;;;;;;5018103;28;20044;-63
2023/04/13 11:51:43;;;;;;;7.75;2.78;;;;;;;;;;5025847;28;20045;-62
2023/04/13 11:54:10;;;;;;;10.65;2.42;;;;;;;;;;5017611;28;20045;-62
2023/04/13 11:56:36;;;;;;;15.40;3.10;;;;;;;;;;5025615;28;20502;-63
2023/04/13 11:59:02;;;;;;;9.73;2.20;;;;;;;;;;5028077;28;20510;-62
2023/04/13 12:01:29;;;;;;;8.90;2.53;;;;;;;;;;5020866;28;20119;-63
2023/04/13 12:04:03;;;;;;;9.02;2.45;;;;;;;;;;5028862;28;20391;-62
2023/04/13 12:06:31;;;;;;;8.57;2.65;;;9.30;57.30;;;;;;5028075;28;20038;-63
2023/04/13 12:09:04;;;;;;;13.93;3.90;;;;;;;;;;5050423;28;20037;-63
2023/04/13 12:11:37;;;;;;;12.98;2.63;;;;;;;;;;5024464;28;20402;-63
2023/04/13 12:14:03;;;;;;;9.57;2.70;;;;;;;;;;5031878;28;20077;-64
2023/04/13 12:16:32;;;;;;;10.95;2.50;;;;;;;;;;5032306;28;20514;-63
2023/04/13 12:19:04;;;;;;;14.05;3.30;;;;;;;;;;5033099;28;20388;-63
2023/04/13 12:21:30;;;;;;;11.95;2.22;;;;;;;;;;5032722;28;20041;-63
2023/04/13 12:24:00;;;;;;;5.68;2.25;;;;;;;;;;5031941;28;20517;-64
2023/04/13 12:26:33;;;;;;;11.43;2.60;;;;;;;;;;5031680;28;20096;-63
2023/04/13 12:29:02;;;;;;;7.68;2.38;;;;;;;;;;5032575;28;20719;-62
2023/04/13 12:31:35;;;;;;;12.52;3.15;;;8.80;99.90;;;;;;5025641;28;20068;-63
2023/04/13 12:34:01;;;;;;;7.38;2.10;;;;;;;;;;5028839;28;20080;-65
2023/04/13 12:36:30;;;;;;;7.82;2.50;;;9.40;99.90;;;;;;5027083;28;20045;-64
2023/04/13 12:38:57;;;;;;;9.10;2.78;;;;;;;;;;5032794;28;20142;-63
2023/04/13 12:41:22;;;;;;;8.75;2.17;;;9.20;99.90;;;;;;5029207;28;20100;-63
2023/04/13 12:43:48;;;;;;;7.82;2.70;;;;;;;;;;5032366;28;20053;-62
2023/04/13 12:46:14;;;;;;;7.53;2.38;;;;;;;;;;5032061;28;20502;-63
2023/04/13 12:48:40;;;;;;;16.35;2.97;;;;;;;;;;5032606;28;20044;-62
2023/04/13 12:51:06;;;;;;;10.05;2.38;;;;;;;;;;5031615;28;20506;-62
2023/04/13 12:53:34;;;;;;;10.73;2.30;;;;;;;;;;5025040;28;20049;-63
2023/04/13 12:55:59;;;;;;;8.30;2.85;;;9.50;99.90;;;;;;5028476;28;20049;-63
2023/04/13 12:58:25;;;;;;;11.82;3.67;;;;;;;;;;5030794;28;20083;-63
2023/04/13 13:00:51;;;;;;;9.73;2.60;;;;;;;;;;5032614;28;20038;-62
2023/04/13 13:03:18;;;;;;;9.20;2.17;;;;;;;;;;5023796;28;20041;-62
2023/04/13 13:05:44;;;;;;;11.93;2.53;;;;;;;;;;5030527;28;20039;-63
2023/04/13 13:08:10;;;;;;;15.45;2.70;;;;;;;;;;5027692;28;20141;-62
2023/04/13 13:10:36;;;;;;;10.63;2.78;;;10.30;92.10;;;;;;5030267;28;20499;-61
2023/04/13 13:13:02;;;;;;;7.45;2.10;;;10.80;91.00;;;;;;5031446;28;20049;-63
2023/04/13 13:15:29;;;;;;;9.63;2.50;;;;;;;;;;5021301;28;20517;-63
2023/04/13 13:17:55;;;;;;;7.53;3.10;;;;;;;;;;5031914;28;20499;-63
2023/04/13 13:20:21;;;;;;;9.63;2.30;;;10.30;37.20;;;;;;5031007;28;20389;-62
2023/04/13 13:22:47;;;;;;;13.00;2.50;;;;;;;;;;5024985;28;20049;-62
2023/04/13 13:25:14;;;;;;;11.75;2.10;;;;;;;;;;5028476;28;20523;-64
2023/04/13 13:27:41;;;;;;;9.68;2.00;;;;;;;;;;5025490;28;20042;-63
2023/04/13 13:30:07;;;;;;;12.77;2.88;;;;;;;;;;5023356;28;20096;-63
2023/04/13 13:32:34;;;;;;;6.53;1.77;;;10.30;3.60;;;;;;5025684;28;20117;-63
2023/04/13 13:35:00;;;;;;;11.40;3.00;;;10.30;1.00;;;;;;5022010;28;20128;-63
2023/04/13 13:37:26;;;;;;;12.25;2.63;;;;;;;;;;5029599;28;20073;-63
2023/04/13 13:39:52;;;;;;;10.73;3.60;;;;;;;;;;5030177;28;20072;-63
2023/04/13 13:42:18;;;;;;;8.75;2.47;;;;;;;;;;5030767;28;20471;-63
2023/04/13 13:44:44;;;;;;;10.02;2.15;;;11.00;1.00;;;;;;5019811;28;20117;-63
2023/04/13 13:47:10;;;;;;;4.90;1.48;;;;;;;;;;5031085;28;20120;-63
2023/04/13 13:49:36;;;;;;;6.93;1.58;;;;;;;;;;5031243;28;20102;-63
2023/04/13 13:52:02;;;;;;;8.40;2.55;;;;;;;;;;5031008;28;20041;-63
2023/04/13 13:54:28;;;;;;;9.88;2.33;;;;;;;;;;5022321;28;20041;-63
2023/04/13 13:56:54;;;;;;;8.30;2.53;;;;;;;;;;5013168;28;20049;-63
2023/04/13 13:59:20;;;;;;;7.10;1.90;;;;;;;;;;5022490;28;20045;-63
2023/04/13 14:01:47;;;;;;;11.02;2.25;;;;;;;;;;5027707;28;20034;-63
2023/04/13 14:04:13;;;;;;;7.32;2.50;;;;;;;;;;5012354;28;20077;-63
2023/04/13 14:06:39;;;;;;;7.40;1.90;;;;;;;;;;5030783;28;20091;-63
2023/04/13 14:09:05;;;;;;;12.90;1.83;;;;;;;;;;5029811;28;20446;-63
2023/04/13 14:11:32;;;;;;;8.43;2.42;;;10.90;99.90;;;;;;5025466;28;20042;-64
2023/04/13 14:13:59;;;;;;;7.68;2.30;;;;;;;;;;5046749;28;20041;-63